createdAt,value
2019-05-29T00:01:20.405Z,91.11
2019-05-29T00:03:47.869Z,91.57
2019-05-29T00:06:16.539Z,90.46
2019-05-29T00:08:44.983Z,89.75
2019-05-29T00:11:14.298Z,87.51
2019-05-29T00:13:42.867Z,89.62
2019-05-29T00:16:12.440Z,88.29
2019-05-29T00:18:40.947Z,87.39
2019-05-29T00:21:11.521Z,85.71
2019-05-29T00:23:39.899Z,84.89
2019-05-29T00:26:08.385Z,82.26
2019-05-29T00:28:36.795Z,83.98
2019-05-29T00:31:05.775Z,81.93
2019-05-29T00:33:34.340Z,83.50
2019-05-29T00:36:02.803Z,83.16
2019-05-29T00:38:31.236Z,84.62
2019-05-29T00:40:59.686Z,85.01
2019-05-29T00:43:28.365Z,83.92
2019-05-29T00:45:56.807Z,83.42
2019-05-29T00:48:25.240Z,82.00
2019-05-29T00:50:53.712Z,81.35
2019-05-29T00:53:22.285Z,81.49
2019-05-29T00:55:50.725Z,82.30
2019-05-29T00:58:19.845Z,84.05
2019-05-29T01:00:48.560Z,83.68
2019-05-29T01:03:17.919Z,84.31
2019-05-29T01:05:46.451Z,84.14
2019-05-29T01:08:14.903Z,83.05
2019-05-29T01:10:43.406Z,83.99
2019-05-29T01:13:13.121Z,83.99
2019-05-29T01:15:41.702Z,84.15
2019-05-29T01:18:10.176Z,84.38
2019-05-29T01:20:38.706Z,82.73
2019-05-29T01:23:07.162Z,82.48
2019-05-29T01:25:35.662Z,82.16
2019-05-29T01:28:04.289Z,81.83
2019-05-29T01:30:32.725Z,83.18
2019-05-29T01:33:01.167Z,83.64
2019-05-29T01:35:29.640Z,83.18
2019-05-29T01:37:58.070Z,82.53
2019-05-29T01:40:29.395Z,82.18
2019-05-29T01:42:56.727Z,82.81
2019-05-29T01:45:25.168Z,82.09
2019-05-29T01:47:53.606Z,83.42
2019-05-29T01:50:22.070Z,83.99
2019-05-29T01:52:50.521Z,83.03
2019-05-29T01:55:19.774Z,82.88
2019-05-29T01:57:48.399Z,82.52
2019-05-29T02:00:17.779Z,82.49
2019-05-29T02:02:46.275Z,83.87
2019-05-29T02:05:15.766Z,83.22
2019-05-29T02:07:44.363Z,83.18
2019-05-29T02:10:13.229Z,81.87
2019-05-29T02:12:41.761Z,81.46
2019-05-29T02:15:23.767Z,82.99
2019-05-29T02:17:40.889Z,84.25
2019-05-29T02:20:09.985Z,84.46
2019-05-29T02:22:38.567Z,84.69
2019-05-29T02:25:07.824Z,85.55
2019-05-29T02:27:36.361Z,83.64
2019-05-29T02:30:09.970Z,83.99
2019-05-29T02:32:38.503Z,83.78
2019-05-29T02:35:07.879Z,83.92
2019-05-29T02:37:36.314Z,84.84
2019-05-29T02:40:06.703Z,85.01
2019-05-29T02:42:35.301Z,85.50
2019-05-29T02:45:05.368Z,84.88
2019-05-29T02:47:33.800Z,84.04
2019-05-29T02:50:02.519Z,85.41
2019-05-29T02:52:30.959Z,84.73
2019-05-29T02:54:59.395Z,82.92
2019-05-29T02:57:29.102Z,82.62
2019-05-29T02:59:57.666Z,83.74
2019-05-29T03:02:27.765Z,83.55
2019-05-29T03:04:56.479Z,83.66
2019-05-29T03:07:26.327Z,83.81
2019-05-29T03:09:55.093Z,85.32
2019-05-29T03:12:25.038Z,84.21
2019-05-29T03:14:53.702Z,84.57
2019-05-29T03:17:23.634Z,84.68
2019-05-29T03:19:52.366Z,85.07
2019-05-29T03:22:20.792Z,86.38
2019-05-29T03:24:49.300Z,87.99
2019-05-29T03:27:17.754Z,89.44
2019-05-29T03:29:46.365Z,89.22
2019-05-29T03:32:14.983Z,89.49
2019-05-29T03:34:47.018Z,88.80
2019-05-29T03:37:13.594Z,88.72
2019-05-29T03:39:42.027Z,88.58
2019-05-29T03:42:10.547Z,89.47
2019-05-29T03:44:38.983Z,88.78
2019-05-29T03:47:07.486Z,86.66
2019-05-29T03:49:37.424Z,86.39
2019-05-29T03:52:06.153Z,85.46
2019-05-29T03:54:35.493Z,84.96
2019-05-29T03:57:04.295Z,84.65
2019-05-29T03:59:32.924Z,84.94
2019-05-29T04:02:01.854Z,83.18
2019-05-29T04:04:31.332Z,83.90
2019-05-29T04:07:00.275Z,84.05
2019-05-29T04:09:29.233Z,85.09
2019-05-29T04:11:58.373Z,84.95
2019-05-29T04:14:27.535Z,83.34
2019-05-29T04:17:00.264Z,84.78
2019-05-29T04:19:31.517Z,83.25
2019-05-29T04:22:03.174Z,82.39
2019-05-29T04:24:34.052Z,82.79
2019-05-29T04:27:04.182Z,82.07
2019-05-29T04:29:34.215Z,83.07
2019-05-29T04:32:02.762Z,80.89
2019-05-29T04:34:31.812Z,81.66
2019-05-29T04:37:01.356Z,81.98
2019-05-29T04:39:30.611Z,80.62
2019-05-29T04:41:59.290Z,81.86
2019-05-29T04:44:28.851Z,81.39
2019-05-29T04:47:10.212Z,81.90
2019-05-29T04:49:29.242Z,82.16
2019-05-29T04:51:57.989Z,83.40
2019-05-29T04:54:26.455Z,82.72
2019-05-29T04:56:54.952Z,82.89
2019-05-29T04:59:23.395Z,82.07
2019-05-29T05:01:51.871Z,83.14
2019-05-29T05:04:20.368Z,83.27
2019-05-29T05:06:48.833Z,80.00
2019-05-29T05:09:17.326Z,80.78
2019-05-29T05:11:45.741Z,80.45
2019-05-29T05:14:14.299Z,80.93
2019-05-29T05:16:42.788Z,81.11
2019-05-29T05:19:11.233Z,79.91
2019-05-29T05:21:40.270Z,79.97
2019-05-29T05:24:08.944Z,80.85
2019-05-29T05:26:38.394Z,81.02
2019-05-29T05:29:07.025Z,80.95
2019-05-29T05:31:37.078Z,80.04
2019-05-29T05:34:05.623Z,80.48
2019-05-29T05:36:34.714Z,80.36
2019-05-29T05:39:03.571Z,80.09
2019-05-29T05:41:36.849Z,80.09
2019-05-29T05:44:04.432Z,81.46
2019-05-29T05:46:33.007Z,80.22
2019-05-29T05:49:01.425Z,81.43
2019-05-29T05:51:31.185Z,81.50
2019-05-29T05:53:59.698Z,81.69
2019-05-29T05:56:28.138Z,79.58
2019-05-29T05:58:58.647Z,79.38
2019-05-29T06:01:27.061Z,79.43
2019-05-29T06:03:55.561Z,79.66
2019-05-29T06:06:23.998Z,81.05
2019-05-29T06:08:52.463Z,79.75
2019-05-29T06:11:20.911Z,81.07
2019-05-29T06:13:49.355Z,80.48
2019-05-29T06:16:17.811Z,80.48
2019-05-29T06:18:46.255Z,79.49
2019-05-29T06:21:14.729Z,79.93
2019-05-29T06:23:43.742Z,79.02
2019-05-29T06:26:12.496Z,78.89
2019-05-29T06:28:41.296Z,77.59
2019-05-29T06:31:09.862Z,76.56
2019-05-29T06:33:39.477Z,77.91
2019-05-29T06:36:08.168Z,77.18
2019-05-29T06:38:37.637Z,77.49
2019-05-29T06:41:06.321Z,75.50
2019-05-29T06:43:35.758Z,76.94
2019-05-29T06:46:04.333Z,76.20
2019-05-29T06:48:46.358Z,76.56
2019-05-29T06:51:04.695Z,74.98
2019-05-29T06:53:33.146Z,73.73
2019-05-29T06:56:02.661Z,76.90
2019-05-29T06:58:31.710Z,76.64
2019-05-29T07:01:00.968Z,75.16
2019-05-29T07:03:29.422Z,75.67
2019-05-29T07:05:57.934Z,74.17
2019-05-29T07:08:38.319Z,73.88
2019-05-29T07:10:56.653Z,73.18
2019-05-29T07:13:25.117Z,73.16
2019-05-29T07:15:53.582Z,72.34
2019-05-29T07:18:22.073Z,73.19
2019-05-29T07:20:50.498Z,69.99
2019-05-29T07:23:19.137Z,70.19
2019-05-29T07:25:47.584Z,70.17
2019-05-29T07:28:16.071Z,69.96
2019-05-29T07:30:53.697Z,69.97
2019-05-29T07:33:14.693Z,70.56
2019-05-29T07:35:43.589Z,71.43
2019-05-29T07:38:12.198Z,67.32
2019-05-29T07:40:42.574Z,64.94
2019-05-29T07:43:10.801Z,64.42
2019-05-29T07:45:40.621Z,66.70
2019-05-29T07:48:09.629Z,65.15
2019-05-29T07:50:38.082Z,65.82
2019-05-29T07:53:06.683Z,65.56
2019-05-29T07:55:35.156Z,64.81
2019-05-29T07:58:03.732Z,65.16
2019-05-29T08:00:35.601Z,63.92
2019-05-29T08:03:02.373Z,63.61
2019-05-29T08:05:30.885Z,64.71
2019-05-29T08:07:59.390Z,63.72
2019-05-29T08:10:27.884Z,63.81
2019-05-29T08:12:56.385Z,62.01
2019-05-29T08:15:25.017Z,65.05
2019-05-29T08:17:53.452Z,65.42
2019-05-29T08:20:22.024Z,63.47
2019-05-29T08:22:51.050Z,63.16
2019-05-29T08:25:19.822Z,61.33
2019-05-29T08:27:48.880Z,61.53
2019-05-29T08:30:18.463Z,62.53
2019-05-29T08:32:47.051Z,61.13
2019-05-29T08:35:15.623Z,60.94
2019-05-29T08:37:44.976Z,59.08
2019-05-29T08:40:15.064Z,60.46
2019-05-29T08:42:43.517Z,58.46
2019-05-29T08:45:12.263Z,57.69
2019-05-29T08:47:41.492Z,57.13
2019-05-29T08:50:18.673Z,57.59
2019-05-29T08:52:42.165Z,58.25
2019-05-29T08:55:13.807Z,56.06
2019-05-29T08:57:42.552Z,55.69
2019-05-29T09:00:12.417Z,57.47
2019-05-29T09:02:40.847Z,57.00
2019-05-29T09:05:09.992Z,54.47
2019-05-29T09:07:38.690Z,51.50
2019-05-29T09:10:08.658Z,53.91
2019-05-29T09:12:37.128Z,54.65
2019-05-29T09:15:09.302Z,53.04
2019-05-29T09:17:38.148Z,55.62
2019-05-29T09:20:07.527Z,56.08
2019-05-29T09:22:35.988Z,57.04
2019-05-29T09:25:06.879Z,57.78
2019-05-29T09:27:35.381Z,58.15
2019-05-29T09:30:05.160Z,57.99
2019-05-29T09:32:49.232Z,57.29
2019-05-29T09:35:04.599Z,56.91
2019-05-29T09:37:33.068Z,56.63
2019-05-29T09:40:01.503Z,56.19
2019-05-29T09:42:29.954Z,54.64
2019-05-29T09:44:58.482Z,54.69
2019-05-29T09:47:26.935Z,52.82
2019-05-29T09:49:55.358Z,52.23
2019-05-29T09:52:23.894Z,52.93
2019-05-29T09:54:53.579Z,52.92
2019-05-29T09:57:22.583Z,52.33
2019-05-29T09:59:51.112Z,52.23
2019-05-29T10:02:19.552Z,51.92
2019-05-29T10:04:48.075Z,52.31
2019-05-29T10:07:16.616Z,52.48
2019-05-29T10:09:45.085Z,53.40
2019-05-29T10:12:13.589Z,53.08
2019-05-29T10:14:42.238Z,53.66
2019-05-29T10:17:12.744Z,52.86
2019-05-29T10:19:40.862Z,52.61
2019-05-29T10:22:09.344Z,49.93
2019-05-29T10:24:37.770Z,50.23
2019-05-29T10:27:06.830Z,51.53
2019-05-29T10:29:35.455Z,51.19
2019-05-29T10:32:04.028Z,50.49
2019-05-29T10:34:32.548Z,50.00
2019-05-29T10:37:01.117Z,50.15
2019-05-29T10:39:29.552Z,49.75
2019-05-29T10:41:57.996Z,49.67
2019-05-29T10:44:26.434Z,48.62
2019-05-29T10:46:56.543Z,49.35
2019-05-29T10:49:25.431Z,49.03
2019-05-29T10:52:10.855Z,49.46
2019-05-29T10:54:24.318Z,49.31
2019-05-29T10:56:53.078Z,49.02
2019-05-29T10:59:21.832Z,49.58
2019-05-29T11:01:51.268Z,48.84
2019-05-29T11:04:20.245Z,47.73
2019-05-29T11:06:50.159Z,48.59
2019-05-29T11:09:18.823Z,49.60
2019-05-29T11:11:48.450Z,48.84
2019-05-29T11:14:17.215Z,48.08
2019-05-29T11:16:46.965Z,48.28
2019-05-29T11:19:15.654Z,48.32
2019-05-29T11:21:44.203Z,47.96
2019-05-29T11:24:12.837Z,48.37
2019-05-29T11:26:41.333Z,49.10
2019-05-29T11:29:09.801Z,48.71
2019-05-29T11:31:39.801Z,49.55
2019-05-29T11:34:08.241Z,48.37
2019-05-29T11:36:36.859Z,50.66
2019-05-29T11:39:09.410Z,48.88
2019-05-29T11:41:41.098Z,48.20
2019-05-29T11:44:09.575Z,48.85
2019-05-29T11:46:38.028Z,47.58
2019-05-29T11:49:06.567Z,48.74
2019-05-29T11:51:35.019Z,47.90
2019-05-29T11:54:03.450Z,46.60
2019-05-29T11:56:32.010Z,46.58
2019-05-29T11:59:00.732Z,47.49
2019-05-29T12:01:29.620Z,47.35
2019-05-29T12:04:20.551Z,47.89
2019-05-29T12:06:28.438Z,48.93
2019-05-29T12:08:57.962Z,49.06
2019-05-29T12:11:26.660Z,47.35
2019-05-29T12:13:56.073Z,47.57
2019-05-29T12:16:24.714Z,47.82
2019-05-29T12:18:53.661Z,47.97
2019-05-29T12:21:22.219Z,47.50
2019-05-29T12:23:51.901Z,47.86
2019-05-29T12:26:22.981Z,48.41
2019-05-29T12:28:50.615Z,48.54
2019-05-29T12:31:19.068Z,47.27
2019-05-29T12:33:47.529Z,46.64
2019-05-29T12:36:16.062Z,46.58
2019-05-29T12:38:44.583Z,45.78
2019-05-29T12:41:13.144Z,46.37
2019-05-29T12:43:41.667Z,46.84
2019-05-29T12:46:10.100Z,49.41
2019-05-29T12:48:38.674Z,47.77
2019-05-29T12:51:07.107Z,46.81
2019-05-29T12:53:35.606Z,46.72
2019-05-29T12:56:04.834Z,46.70
2019-05-29T12:58:33.355Z,44.37
2019-05-29T13:01:03.018Z,45.76
2019-05-29T13:03:31.946Z,47.12
2019-05-29T13:06:00.502Z,46.63
2019-05-29T13:08:28.925Z,46.10
2019-05-29T13:10:58.238Z,46.77
2019-05-29T13:13:26.867Z,46.62
2019-05-29T13:15:56.607Z,46.34
2019-05-29T13:18:25.258Z,46.10
2019-05-29T13:20:54.742Z,46.95
2019-05-29T13:23:23.269Z,45.20
2019-05-29T13:25:51.877Z,45.23
2019-05-29T13:28:20.310Z,46.67
2019-05-29T13:30:48.831Z,46.40
2019-05-29T13:33:17.412Z,45.66
2019-05-29T13:35:45.940Z,46.84
2019-05-29T13:38:14.377Z,49.42
2019-05-29T13:40:42.981Z,48.18
2019-05-29T13:43:15.541Z,47.30
2019-05-29T13:45:41.847Z,46.94
2019-05-29T13:48:10.314Z,48.35
2019-05-29T13:50:38.743Z,46.83
2019-05-29T13:53:07.580Z,47.09
2019-05-29T13:55:36.361Z,47.78
2019-05-29T13:58:05.827Z,47.03
2019-05-29T14:00:35.181Z,47.28
2019-05-29T14:03:04.882Z,46.16
2019-05-29T14:05:33.423Z,48.01
2019-05-29T14:08:02.751Z,45.73
2019-05-29T14:10:31.395Z,46.49
2019-05-29T14:13:00.974Z,47.79
2019-05-29T14:15:29.859Z,47.52
2019-05-29T14:17:58.677Z,47.30
2019-05-29T14:20:27.173Z,44.94
2019-05-29T14:22:55.605Z,46.13
2019-05-29T14:25:24.141Z,45.98
2019-05-29T14:27:52.573Z,44.83
2019-05-29T14:30:21.244Z,44.62
2019-05-29T14:32:49.711Z,43.53
2019-05-29T14:35:18.391Z,43.21
2019-05-29T14:37:46.852Z,44.89
2019-05-29T14:40:17.255Z,44.03
2019-05-29T14:42:45.779Z,43.61
2019-05-29T14:45:16.029Z,45.19
2019-05-29T14:47:44.716Z,43.96
2019-05-29T14:50:13.690Z,44.27
2019-05-29T14:52:42.139Z,44.48
2019-05-29T14:55:16.200Z,43.79
2019-05-29T14:57:41.233Z,45.12
2019-05-29T15:00:22.829Z,45.01
2019-05-29T15:02:42.669Z,45.13
2019-05-29T15:05:12.555Z,45.42
2019-05-29T15:07:42.016Z,44.81
2019-05-29T15:10:23.890Z,44.36
2019-05-29T15:12:41.576Z,44.13
2019-05-29T15:15:11.482Z,43.93
2019-05-29T15:17:40.952Z,43.08
2019-05-29T15:20:12.339Z,43.37
2019-05-29T15:22:40.496Z,44.55
2019-05-29T15:25:18.376Z,45.46
2019-05-29T15:27:40.205Z,47.25
2019-05-29T15:30:11.382Z,46.84
2019-05-29T15:32:39.897Z,46.28
2019-05-29T15:35:12.779Z,45.37
2019-05-29T15:37:39.322Z,46.43
2019-05-29T15:40:08.871Z,45.28
2019-05-29T15:42:37.430Z,46.83
2019-05-29T15:45:11.817Z,45.71
2019-05-29T15:47:40.517Z,47.28
2019-05-29T15:50:11.794Z,46.73
2019-05-29T15:52:41.522Z,46.61
2019-05-29T15:55:24.611Z,46.37
2019-05-29T15:57:41.053Z,46.57
2019-05-29T16:00:11.370Z,47.30
2019-05-29T16:02:40.351Z,46.48
2019-05-29T16:05:11.186Z,45.75
2019-05-29T16:07:39.922Z,46.29
2019-05-29T16:10:13.084Z,45.31
2019-05-29T16:12:40.192Z,46.31
2019-05-29T16:15:11.272Z,45.42
2019-05-29T16:17:39.981Z,45.23
2019-05-29T16:20:12.470Z,44.62
2019-05-29T16:22:40.895Z,45.65
2019-05-29T16:25:10.823Z,45.44
2019-05-29T16:27:39.391Z,45.09
2019-05-29T16:30:08.864Z,45.28
2019-05-29T16:32:37.456Z,43.67
2019-05-29T16:35:07.730Z,44.00
2019-05-29T16:37:36.234Z,44.86
2019-05-29T16:40:14.165Z,44.75
2019-05-29T16:42:42.942Z,45.10
2019-05-29T16:45:12.512Z,44.34
2019-05-29T16:47:41.239Z,45.03
2019-05-29T16:50:10.532Z,46.63
2019-05-29T16:52:39.035Z,47.19
2019-05-29T16:55:08.036Z,46.03
2019-05-29T16:57:36.534Z,45.39
2019-05-29T17:00:07.184Z,46.12
2019-05-29T17:02:35.710Z,45.06
2019-05-29T17:05:08.167Z,44.96
2019-05-29T17:07:36.666Z,45.42
2019-05-29T17:10:09.424Z,45.34
2019-05-29T17:12:37.878Z,46.21
2019-05-29T17:15:09.416Z,45.70
2019-05-29T17:17:37.901Z,45.49
2019-05-29T17:20:09.760Z,45.83
2019-05-29T17:22:38.346Z,46.88
2019-05-29T17:25:07.750Z,48.00
2019-05-29T17:27:36.260Z,48.31
2019-05-29T17:30:06.944Z,47.61
2019-05-29T17:32:35.436Z,48.51
2019-05-29T17:35:06.392Z,48.48
2019-05-29T17:37:34.879Z,47.60
2019-05-29T17:40:04.621Z,48.16
2019-05-29T17:42:33.090Z,47.83
2019-05-29T17:45:01.815Z,48.76
2019-05-29T17:47:30.402Z,48.29
2019-05-29T17:49:58.840Z,48.88
2019-05-29T17:52:27.342Z,48.04
2019-05-29T17:54:55.808Z,48.67
2019-05-29T17:57:24.253Z,48.98
2019-05-29T17:59:52.751Z,49.61
2019-05-29T18:02:22.213Z,48.32
2019-05-29T18:04:50.790Z,48.82
2019-05-29T18:07:20.512Z,50.32
2019-05-29T18:09:49.229Z,49.59
2019-05-29T18:12:19.051Z,49.76
2019-05-29T18:14:47.716Z,50.00
2019-05-29T18:17:17.724Z,50.10
2019-05-29T18:19:46.229Z,49.14
2019-05-29T18:22:14.726Z,49.70
2019-05-29T18:24:43.263Z,49.13
2019-05-29T18:27:11.774Z,50.14
2019-05-29T18:29:40.218Z,50.31
2019-05-29T18:32:08.786Z,51.03
2019-05-29T18:34:37.235Z,50.81
2019-05-29T18:37:05.893Z,50.85
2019-05-29T18:39:34.420Z,51.19
2019-05-29T18:42:02.934Z,51.57
2019-05-29T18:44:31.366Z,51.84
2019-05-29T18:47:01.014Z,52.32
2019-05-29T18:49:29.552Z,52.43
2019-05-29T18:52:00.288Z,52.23
2019-05-29T18:54:28.317Z,53.55
2019-05-29T18:57:13.648Z,52.71
2019-05-29T18:59:27.537Z,53.90
2019-05-29T19:01:56.282Z,55.43
2019-05-29T19:04:25.515Z,57.10
2019-05-29T19:06:54.232Z,58.26
2019-05-29T19:09:23.650Z,58.50
2019-05-29T19:11:52.236Z,59.35
2019-05-29T19:14:21.766Z,59.47
2019-05-29T19:16:50.337Z,60.84
2019-05-29T19:19:18.773Z,61.16
2019-05-29T19:21:47.346Z,61.58
2019-05-29T19:24:15.911Z,62.20
2019-05-29T19:26:44.349Z,62.36
2019-05-29T19:29:12.858Z,62.25
2019-05-29T19:31:42.611Z,62.74
2019-05-29T19:34:11.241Z,62.71
2019-05-29T19:36:39.793Z,64.04
2019-05-29T19:39:08.816Z,63.29
2019-05-29T19:41:37.267Z,65.49
2019-05-29T19:44:05.704Z,65.12
2019-05-29T19:46:48.568Z,65.81
2019-05-29T19:49:04.611Z,66.78
2019-05-29T19:51:33.567Z,67.04
2019-05-29T19:54:02.220Z,67.15
2019-05-29T19:56:31.726Z,68.35
2019-05-29T19:59:00.399Z,70.07
2019-05-29T20:01:34.158Z,68.84
2019-05-29T20:03:59.157Z,69.01
2019-05-29T20:06:28.781Z,69.56
2019-05-29T20:08:57.712Z,70.90
2019-05-29T20:11:27.572Z,70.96
2019-05-29T20:13:56.112Z,69.87
2019-05-29T20:16:24.675Z,70.58
2019-05-29T20:18:53.111Z,70.38
2019-05-29T20:21:21.790Z,70.00
2019-05-29T20:23:50.257Z,69.23
2019-05-29T20:26:18.778Z,70.11
2019-05-29T20:28:47.241Z,70.43
2019-05-29T20:31:15.733Z,69.78
2019-05-29T20:33:44.180Z,69.07
2019-05-29T20:36:12.702Z,71.62
2019-05-29T20:38:41.415Z,72.55
2019-05-29T20:41:09.894Z,72.55
2019-05-29T20:43:39.632Z,71.61
2019-05-29T20:46:08.439Z,71.87
2019-05-29T20:48:36.955Z,71.68
2019-05-29T20:51:05.628Z,71.30
2019-05-29T20:53:35.280Z,71.62
2019-05-29T20:56:04.233Z,72.99
2019-05-29T20:58:33.746Z,73.23
2019-05-29T21:01:03.382Z,74.04
2019-05-29T21:03:32.307Z,75.28
2019-05-29T21:06:00.781Z,74.63
2019-05-29T21:08:29.311Z,74.49
2019-05-29T21:10:57.753Z,74.56
2019-05-29T21:13:26.190Z,74.36
2019-05-29T21:15:54.648Z,74.94
2019-05-29T21:18:23.155Z,74.74
2019-05-29T21:20:51.612Z,74.75
2019-05-29T21:23:20.094Z,74.85
2019-05-29T21:25:48.525Z,75.68
2019-05-29T21:28:16.960Z,76.40
2019-05-29T21:30:45.775Z,77.01
2019-05-29T21:33:14.301Z,77.17
2019-05-29T21:35:44.188Z,76.52
2019-05-29T21:38:12.827Z,77.07
2019-05-29T21:40:42.439Z,77.06
2019-05-29T21:43:11.082Z,76.97
2019-05-29T21:45:40.952Z,77.11
2019-05-29T21:48:09.552Z,76.99
2019-05-29T21:50:38.823Z,76.82
2019-05-29T21:53:07.658Z,77.36
2019-05-29T21:55:37.447Z,76.54
2019-05-29T21:58:06.142Z,77.41
2019-05-29T22:00:49.505Z,77.86
2019-05-29T22:03:18.005Z,76.80
2019-05-29T22:05:46.857Z,76.90
2019-05-29T22:08:15.603Z,77.36
2019-05-29T22:10:44.764Z,77.50
2019-05-29T22:13:13.436Z,78.79
2019-05-29T22:15:41.897Z,78.42
2019-05-29T22:18:10.339Z,78.86
2019-05-29T22:20:38.904Z,79.17
2019-05-29T22:23:07.552Z,79.53
2019-05-29T22:25:36.065Z,79.69
2019-05-29T22:28:04.634Z,80.96
2019-05-29T22:30:33.256Z,81.40
2019-05-29T22:33:02.035Z,81.32
2019-05-29T22:35:30.388Z,81.84
2019-05-29T22:38:00.048Z,82.86
2019-05-29T22:40:28.726Z,82.67
2019-05-29T22:42:57.608Z,82.61
2019-05-29T22:45:26.074Z,82.64
2019-05-29T22:47:55.762Z,84.40
2019-05-29T22:50:24.290Z,83.72
2019-05-29T22:52:53.818Z,83.52
2019-05-29T22:55:22.433Z,84.10
2019-05-29T22:57:51.873Z,84.33
2019-05-29T23:00:20.917Z,85.16
2019-05-29T23:02:49.359Z,84.17
2019-05-29T23:05:18.473Z,84.56
2019-05-29T23:07:47.230Z,84.37
2019-05-29T23:10:16.497Z,84.00
2019-05-29T23:12:44.933Z,84.24
2019-05-29T23:15:14.643Z,85.21
2019-05-29T23:17:43.177Z,85.63
2019-05-29T23:20:12.150Z,84.58
2019-05-29T23:22:40.677Z,85.39
2019-05-29T23:25:10.061Z,85.61
2019-05-29T23:27:38.500Z,85.34
2019-05-29T23:30:10.922Z,85.27
2019-05-29T23:32:39.502Z,86.23
2019-05-29T23:35:08.679Z,85.61
2019-05-29T23:37:37.196Z,86.03
2019-05-29T23:40:08.115Z,85.58
2019-05-29T23:42:36.546Z,85.45
2019-05-29T23:45:08.853Z,86.17
2019-05-29T23:47:37.282Z,85.98
2019-05-29T23:50:07.152Z,86.34
2019-05-29T23:52:35.622Z,86.45
2019-05-29T23:55:05.495Z,87.18
2019-05-29T23:57:33.926Z,86.45
